createdAt,value
2023-03-23T16:00:16.631Z,17.70
2023-03-23T16:02:43.716Z,13.43
2023-03-23T16:05:13.117Z,16.30
2023-03-23T16:07:39.794Z,13.32
2023-03-23T16:10:07.998Z,14.18
2023-03-23T16:12:34.605Z,12.70
2023-03-23T16:15:01.208Z,14.67
2023-03-23T16:17:27.836Z,13.05
2023-03-23T16:19:54.497Z,16.50
2023-03-23T16:22:21.377Z,13.38
2023-03-23T16:24:47.935Z,13.85
2023-03-23T16:27:14.745Z,14.80
2023-03-23T16:32:13.902Z,13.82
2023-03-23T16:34:40.562Z,14.23
2023-03-23T16:37:07.293Z,13.27
2023-03-23T16:39:33.946Z,15.07
2023-03-23T16:42:00.586Z,12.20
2023-03-23T16:44:27.200Z,14.40
2023-03-23T16:46:53.747Z,14.05
2023-03-23T16:49:20.366Z,13.38
2023-03-23T16:51:48.130Z,14.37
2023-03-23T16:54:14.764Z,13.77
2023-03-23T16:56:41.445Z,14.95
2023-03-23T16:59:08.126Z,12.82
2023-03-23T17:01:34.730Z,12.50
2023-03-23T17:04:01.386Z,14.77
2023-03-23T17:06:27.979Z,15.65
2023-03-23T17:08:54.605Z,14.30
2023-03-23T17:11:21.337Z,15.07
2023-03-23T17:13:48.263Z,12.98
2023-03-23T17:16:14.850Z,11.10
2023-03-23T17:18:41.540Z,10.55
2023-03-23T17:21:08.202Z,11.77
2023-03-23T17:23:35.128Z,15.55
2023-03-23T17:26:01.881Z,13.45
2023-03-23T17:28:28.782Z,12.07
2023-03-23T17:30:55.623Z,11.80
2023-03-23T17:33:22.194Z,14.80
2023-03-23T17:35:51.754Z,16.00
2023-03-23T17:38:18.721Z,15.02
2023-03-23T17:40:45.332Z,13.47
2023-03-23T17:43:12.051Z,14.68
2023-03-23T17:45:38.811Z,13.52
2023-03-23T17:48:07.690Z,13.55
2023-03-23T17:50:35.611Z,14.38
2023-03-23T17:53:02.186Z,13.27
2023-03-23T17:55:28.802Z,28.83
2023-03-23T17:57:55.449Z,64.03
2023-03-23T18:00:22.245Z,65.65
2023-03-23T18:02:48.968Z,98.90
2023-03-23T18:05:16.000Z,93.97
2023-03-23T18:07:42.672Z,61.47
2023-03-23T18:10:12.540Z,29.30
2023-03-23T18:12:40.889Z,28.67
2023-03-23T18:15:09.018Z,37.28
2023-03-23T18:17:35.990Z,25.33
2023-03-23T18:20:03.926Z,20.50
2023-03-23T18:22:30.644Z,16.20
2023-03-23T18:24:58.361Z,17.20
2023-03-23T18:27:25.095Z,18.42
2023-03-23T18:29:51.702Z,23.80
2023-03-23T18:32:19.665Z,24.77
2023-03-23T18:34:46.848Z,23.98
2023-03-23T18:37:13.647Z,26.48
2023-03-23T18:39:40.226Z,23.42
2023-03-23T18:42:06.817Z,46.07
2023-03-23T18:44:33.616Z,61.45
2023-03-23T18:47:00.197Z,48.33
2023-03-23T18:49:28.420Z,24.98
2023-03-23T18:51:55.014Z,18.25
2023-03-23T18:54:21.669Z,14.80
2023-03-23T18:56:48.338Z,16.02
2023-03-23T18:59:14.861Z,14.73
2023-03-23T19:01:41.505Z,16.33
2023-03-23T19:04:08.179Z,13.00
2023-03-23T19:06:35.119Z,16.80
2023-03-23T19:09:02.135Z,14.55
2023-03-23T19:11:28.868Z,13.15
2023-03-23T19:14:02.176Z,14.00
2023-03-23T19:16:31.100Z,12.20
2023-03-23T19:18:57.935Z,14.73
2023-03-23T19:21:25.758Z,19.85
2023-03-23T19:23:54.579Z,21.33
2023-03-23T19:26:36.626Z,21.65
2023-03-23T19:31:35.453Z,23.03
2023-03-23T19:34:02.225Z,24.13
2023-03-23T19:36:28.827Z,24.75
2023-03-23T19:38:57.596Z,23.85
2023-03-23T19:41:27.035Z,34.58
2023-03-23T19:43:54.840Z,32.17
2023-03-23T19:46:22.264Z,31.20
2023-03-23T19:48:49.034Z,17.75
2023-03-23T19:51:18.784Z,16.38
2023-03-23T19:53:46.404Z,14.23
2023-03-23T19:56:15.449Z,14.60
2023-03-23T19:58:42.312Z,19.40
2023-03-23T20:01:09.152Z,17.77
2023-03-23T20:03:36.867Z,23.98
2023-03-23T20:06:11.026Z,30.77
2023-03-23T20:08:43.334Z,43.27
2023-03-23T20:11:17.635Z,41.22
2023-03-23T20:13:45.900Z,33.33
2023-03-23T20:16:12.586Z,29.50
2023-03-23T20:18:40.382Z,17.88
2023-03-23T20:21:13.418Z,21.97
2023-03-23T20:23:42.163Z,20.42
2023-03-23T20:26:13.015Z,26.80
2023-03-23T20:28:40.789Z,29.73
2023-03-23T20:31:24.298Z,43.17
2023-03-23T20:33:59.825Z,42.40
2023-03-23T20:36:34.622Z,32.60
2023-03-23T20:39:05.401Z,27.55
2023-03-23T20:41:35.755Z,39.08
2023-03-23T20:44:02.655Z,56.10
2023-03-23T20:46:29.266Z,57.93
2023-03-23T20:48:55.922Z,38.70
2023-03-23T20:51:22.905Z,62.30
2023-03-23T20:53:50.081Z,73.28
2023-03-23T20:56:16.847Z,70.45
2023-03-23T20:58:43.517Z,48.47
2023-03-23T21:01:10.786Z,40.40
2023-03-23T21:03:42.094Z,26.35
2023-03-23T21:06:08.808Z,18.20
2023-03-23T21:08:37.495Z,12.95
2023-03-23T21:11:05.869Z,9.47
2023-03-23T21:13:32.998Z,10.32
2023-03-23T21:16:02.180Z,9.85
2023-03-23T21:18:30.008Z,11.27
2023-03-23T21:20:57.220Z,12.63
2023-03-23T21:23:26.501Z,10.27
2023-03-23T21:25:54.563Z,9.70
2023-03-23T21:28:22.085Z,8.52
2023-03-23T21:30:50.940Z,8.98
2023-03-23T21:33:17.778Z,9.70
2023-03-23T21:35:44.389Z,9.00
2023-03-23T21:38:19.980Z,9.40
2023-03-23T21:40:46.817Z,10.40
2023-03-23T21:43:16.407Z,9.98
2023-03-23T21:45:44.618Z,11.27
2023-03-23T21:48:12.902Z,9.93
2023-03-23T21:50:44.224Z,11.23
2023-03-23T21:53:18.019Z,9.82
2023-03-23T21:55:51.738Z,10.60
2023-03-23T21:58:20.010Z,12.90
2023-03-23T22:00:47.486Z,9.90
2023-03-23T22:03:23.324Z,10.75
2023-03-23T22:05:56.849Z,11.00
2023-03-23T22:08:28.821Z,9.35
2023-03-23T22:11:07.263Z,14.23
2023-03-23T22:13:36.162Z,12.00
2023-03-23T22:16:05.607Z,10.30
2023-03-23T22:18:34.684Z,13.60
2023-03-23T22:21:01.439Z,11.25
2023-03-23T22:23:28.219Z,11.52
2023-03-23T22:25:56.661Z,10.27
2023-03-23T22:28:26.334Z,13.27
2023-03-23T22:31:04.561Z,9.18
2023-03-23T22:33:32.027Z,11.98
2023-03-23T22:36:00.130Z,18.38
2023-03-23T22:38:26.933Z,11.27
2023-03-23T22:41:02.265Z,9.98
2023-03-23T22:43:29.291Z,12.95
2023-03-23T22:45:56.222Z,13.15
2023-03-23T22:48:24.666Z,14.15
2023-03-23T22:50:51.352Z,10.83
2023-03-23T22:53:18.718Z,9.75
2023-03-23T22:55:47.943Z,10.48
2023-03-23T22:58:15.944Z,11.30
2023-03-23T23:00:48.247Z,15.15
2023-03-23T23:03:16.565Z,10.50
2023-03-23T23:05:45.508Z,10.80
2023-03-23T23:08:14.662Z,11.68
2023-03-23T23:10:45.738Z,9.85
2023-03-23T23:13:13.654Z,12.52
2023-03-23T23:15:44.320Z,12.00
2023-03-23T23:18:12.356Z,13.55
2023-03-23T23:20:39.220Z,13.55
2023-03-23T23:23:06.095Z,14.63
2023-03-23T23:25:33.307Z,11.65
2023-03-23T23:28:01.435Z,12.47
2023-03-23T23:30:29.158Z,12.85
2023-03-23T23:32:56.782Z,12.63
2023-03-23T23:35:23.860Z,13.18
2023-03-23T23:37:50.762Z,11.07
2023-03-23T23:40:18.644Z,11.63
2023-03-23T23:42:47.620Z,10.55
2023-03-23T23:45:15.549Z,9.95
2023-03-23T23:47:42.687Z,9.77
2023-03-23T23:50:11.529Z,9.95
2023-03-23T23:52:39.608Z,7.97
2023-03-23T23:55:08.961Z,9.93
2023-03-23T23:57:35.815Z,9.27
